Time;durP1;ratioP1;P1;durP2;ratioP2;P2;SDS_P1;SDS_P2;PMS_P1;PMS_P2;Temp;Humidity;BMP_temperature;BMP_pressure;BME280_temperature;BME280_humidity;BME280_pressure;Samples;Min_cycle;Max_cycle;Signal;HPM_P1;HPM_P2
2022/08/22 00:02:01;;;;;;;56.30;53.30;;;;;;;24.88;42.18;101497.63;5054208;28;20039;-71
2022/08/22 00:04:42;;;;;;;57.70;54.67;;;;;;;24.85;41.87;101499.09;5037079;28;20041;-71
2022/08/22 00:07:17;;;;;;;55.38;52.17;;;;;;;24.82;42.49;101496.94;5054037;28;20499;-72
2022/08/22 00:09:56;;;;;;;59.97;56.95;;;;;;;24.81;42.43;101501.66;5055644;28;20032;-72
2022/08/22 00:12:32;;;;;;;58.38;55.25;;;;;;;24.79;42.28;101495.63;5054251;28;20040;-72
2022/08/22 00:15:08;;;;;;;57.53;54.47;;;;;;;24.77;42.54;101492.41;5055420;28;20025;-74
2022/08/22 00:17:48;;;;;;;54.55;51.47;;;;;;;24.76;42.34;101489.94;5055200;28;20025;-72
2022/08/22 00:20:45;;;;;;;52.05;49.40;;;;;;;24.73;42.31;101491.41;5054773;28;20070;-74
2022/08/22 00:23:16;;;;;;;54.38;51.78;;;;;;;24.71;42.31;101492.84;5020938;28;20029;-71
2022/08/22 00:26:00;;;;;;;56.95;53.95;;;;;;;24.70;42.50;101488.47;5055060;28;20036;-71
2022/08/22 00:28:35;;;;;;;57.25;53.97;;;;;;;24.67;42.44;101480.81;5055223;28;20116;-72
2022/08/22 00:31:23;;;;;;;58.35;55.35;;;;;;;24.66;42.33;101481.97;5055038;28;20052;-72
2022/08/22 00:33:57;;;;;;;56.28;53.47;;;;;;;24.62;42.25;101487.31;5054872;28;20024;-72
2022/08/22 00:36:36;;;;;;;56.47;53.47;;;;;;;24.60;42.81;101484.88;5055131;28;20067;-71
2022/08/22 00:39:27;;;;;;;60.75;57.72;;;;;;;24.58;42.63;101481.59;5054994;28;20033;-71
2022/08/22 00:42:28;;;;;;;55.10;52.30;;;;;;;24.56;42.33;101477.53;5055184;28;20040;-75
2022/08/22 00:45:27;;;;;;;58.00;54.95;;;;;;;24.54;42.89;101483.38;5053628;28;20429;-76
2022/08/22 00:48:17;;;;;;;56.88;53.08;;;;;;;24.51;42.70;101481.25;5054618;28;20055;-72
2022/08/22 00:51:08;;;;;;;56.85;53.22;;;;;;;24.48;42.33;101481.09;5054794;28;20035;-72
2022/08/22 00:53:45;;;;;;;56.10;53.10;;;;;;;24.47;42.48;101484.97;5054438;28;20039;-72
2022/08/22 00:56:28;;;;;;;58.88;55.65;;;;;;;24.44;42.81;101483.63;5054349;28;20381;-72
2022/08/22 00:59:29;;;;;;;54.65;51.40;;;;;;;24.43;43.16;101483.97;5054380;28;20339;-76
2022/08/22 01:02:01;;;;;;;54.42;51.63;;;;;;;24.40;43.10;101482.66;5054579;28;20021;-76
2022/08/22 01:04:46;;;;;;;55.40;52.17;;;;;;;24.38;42.84;101477.44;5053687;28;20475;-71
2022/08/22 01:07:29;;;;;;;56.90;53.60;;;;;;;24.38;42.91;101487.66;5054665;28;20063;-72
2022/08/22 01:10:35;;;;;;;56.40;53.40;;;;;;;24.34;43.38;101484.75;5054636;28;20041;-73
2022/08/22 01:13:28;;;;;;;52.97;50.08;;;;;;;24.33;43.13;101485.06;5036084;28;20041;-72
2022/08/22 01:16:09;;;;;;;54.08;51.38;;;;;;;24.30;43.02;101486.50;5054191;28;20028;-72
2022/08/22 01:18:58;;;;;;;58.30;55.03;;;;;;;24.29;43.35;101490.41;5053797;28;20440;-71
2022/08/22 01:21:53;;;;;;;53.97;50.97;;;;;;;24.27;43.58;101483.56;5053196;28;20032;-72
2022/08/22 01:24:24;;;;;;;59.38;56.03;;;;;;;24.26;43.55;101487.44;5054170;28;20027;-72
2022/08/22 01:27:13;;;;;;;59.60;56.17;;;;;;;24.25;43.59;101494.13;5052821;28;20029;-72
2022/08/22 01:29:44;;;;;;;54.50;51.50;;;;;;;24.21;43.20;101485.63;5053947;28;20060;-72
2022/08/22 01:32:27;;;;;;;56.47;53.08;;;;;;;24.19;43.45;101491.50;5053486;28;20383;-72
2022/08/22 01:34:52;;;;;;;53.42;50.63;;;;;;;24.17;43.32;101491.00;5053765;28;20453;-71
2022/08/22 01:37:42;;;;;;;52.67;49.75;;;;;;;24.17;43.66;101490.19;5053402;28;20031;-71
2022/08/22 01:40:26;;;;;;;52.88;49.88;;;;;;;24.15;43.51;101492.44;5053880;28;20040;-71
2022/08/22 01:43:07;;;;;;;53.72;50.65;;;;;;;24.13;43.59;101491.94;5052891;28;20366;-72
2022/08/22 01:45:51;;;;;;;56.38;53.35;;;;;;;24.11;43.19;101496.94;5053113;28;20078;-73
2022/08/22 01:48:23;;;;;;;57.45;53.83;;;;;;;24.08;43.29;101481.84;5053927;28;20061;-71
2022/08/22 01:50:56;;;;;;;54.63;51.47;;;;;;;24.07;43.38;101490.44;5053974;28;20047;-71
2022/08/22 01:53:42;;;;;;;51.55;48.85;;;;;;;24.05;43.22;101488.00;5052753;28;20362;-71
2022/08/22 01:56:18;;;;;;;55.90;52.65;;;;;;;24.05;43.58;101495.47;5053633;28;20354;-71
2022/08/22 01:58:58;;;;;;;55.30;51.75;;;;;;;24.02;43.55;101488.63;5053944;28;20515;-71
2022/08/22 02:01:51;;;;;;;53.67;50.42;;;;;;;24.00;43.74;101496.41;5053482;28;20505;-73
2022/08/22 02:04:28;;;;;;;53.35;49.97;;;;;;;23.99;43.62;101492.03;5052933;28;20099;-71
2022/08/22 02:07:03;;;;;;;54.77;51.50;;;;;;;23.97;43.58;101484.06;5053011;28;20386;-72
2022/08/22 02:09:37;;;;;;;56.00;53.20;;;;;;;23.96;43.51;101492.63;5053847;28;20021;-74
2022/08/22 02:12:39;;;;;;;55.70;52.58;;;;;;;23.95;43.64;101485.50;5052955;28;20047;-77
2022/08/22 02:15:04;;;;;;;53.00;50.05;;;;;;;23.93;43.18;101482.22;5053297;28;20540;-69
2022/08/22 02:17:47;;;;;;;58.60;55.40;;;;;;;23.91;43.38;101484.50;5053143;28;20060;-72
2022/08/22 02:20:28;;;;;;;54.58;51.13;;;;;;;23.91;43.44;101487.25;5053529;28;20048;-72
2022/08/22 02:23:03;;;;;;;53.25;50.17;;;;;;;23.89;43.48;101481.22;5053459;28;20086;-71
2022/08/22 02:26:08;;;;;;;57.35;53.70;;;;;;;23.87;43.28;101483.50;5052056;28;20087;-72
2022/08/22 02:28:59;;;;;;;56.75;53.75;;;;;;;23.85;43.49;101480.25;5053039;28;20095;-72
2022/08/22 02:31:47;;;;;;;52.92;49.85;;;;;;;23.82;43.39;101481.69;5052492;28;20053;-71
2022/08/22 02:34:30;;;;;;;51.65;48.80;;;;;;;23.81;43.60;101480.03;5052232;28;20059;-73
2022/08/22 02:37:16;;;;;;;51.17;48.33;;;;;;;23.79;43.32;101485.09;5053306;28;20142;-71
2022/08/22 02:40:00;;;;;;;50.42;47.65;;;;;;;23.78;43.74;101482.63;5053006;28;20032;-72
2022/08/22 02:42:28;;;;;;;56.08;52.67;;;;;;;23.75;43.54;101473.03;5052978;28;20036;-71
2022/08/22 02:45:02;;;;;;;54.33;51.33;;;;;;;23.73;43.57;101478.03;5052966;28;20127;-71
2022/08/22 02:47:42;;;;;;;53.13;50.08;;;;;;;23.73;43.45;101478.03;5053145;28;20028;-71
2022/08/22 02:50:28;;;;;;;53.35;50.42;;;;;;;23.71;43.67;101478.34;5054727;28;20043;-72
2022/08/22 02:53:14;;;;;;;52.83;49.92;;;;;;;23.70;43.51;101464.84;5056008;28;20100;-73
2022/08/22 02:56:05;;;;;;;54.13;50.85;;;;;;;23.68;43.65;101467.91;5056126;28;20045;-72
2022/08/22 02:58:52;;;;;;;52.47;49.47;;;;;;;23.67;43.92;101465.50;5056192;28;20067;-73
2022/08/22 03:01:23;;;;;;;57.42;54.50;;;;;;;23.66;43.48;101469.34;5055513;28;20465;-72
2022/08/22 03:03:49;;;;;;;58.63;55.53;;;;;;;23.64;43.80;101464.19;5056585;28;20481;-72
2022/08/22 03:07:06;;;;;;;52.47;49.75;;;;;;;23.63;43.67;101465.28;5056476;28;20040;-73
2022/08/22 03:09:38;;;;;;;53.70;50.80;;;;;;;23.60;43.66;101463.16;5030481;28;20110;-72
2022/08/22 03:12:26;;;;;;;51.85;48.95;;;;;;;23.59;43.56;101464.31;5056449;28;20025;-72
2022/08/22 03:15:04;;;;;;;51.60;48.80;;;;;;;23.58;43.63;101453.56;5055336;28;20060;-72
2022/08/22 03:17:56;;;;;;;52.53;48.97;;;;;;;23.56;43.94;101459.38;5055240;28;20657;-72
2022/08/22 03:20:38;;;;;;;53.65;50.45;;;;;;;23.54;44.10;101456.97;5056478;28;20040;-71
2022/08/22 03:23:11;;;;;;;50.58;47.97;;;;;;;23.53;44.12;101457.25;5056460;28;20037;-71
2022/08/22 03:25:46;;;;;;;54.42;51.40;;;;;;;23.51;44.18;101452.06;5056473;28;20353;-72
2022/08/22 03:28:42;;;;;;;53.33;50.33;;;;;;;23.50;44.12;101455.13;5056125;28;20083;-74
2022/08/22 03:31:23;;;;;;;53.08;50.17;;;;;;;23.48;43.85;101454.63;5024441;28;20056;-72
2022/08/22 03:34:15;;;;;;;50.40;47.35;;;;;;;23.47;43.71;101453.00;5054676;28;20047;-73
2022/08/22 03:36:47;;;;;;;50.70;47.58;;;;;;;23.45;44.22;101442.28;5056532;28;20075;-72
2022/08/22 03:39:17;;;;;;;52.70;49.45;;;;;;;23.43;44.17;101449.25;5054829;28;20206;-72
2022/08/22 03:42:01;;;;;;;58.10;54.47;;;;;;;23.43;43.78;101446.47;5056449;28;20108;-71
2022/08/22 03:44:48;;;;;;;55.42;52.65;;;;;;;23.42;43.99;101447.63;5054607;28;20483;-71
2022/08/22 03:47:48;;;;;;;50.60;47.90;;;;;;;23.40;44.18;101449.88;5056310;28;20086;-71
2022/08/22 03:50:32;;;;;;;52.83;49.70;;;;;;;23.38;44.17;101446.59;5055436;28;20115;-73
2022/08/22 03:53:44;;;;;;;51.13;48.42;;;;;;;23.36;43.88;101437.81;5055891;28;20112;-72
2022/08/22 03:56:18;;;;;;;54.20;50.78;;;;;;;23.34;43.77;101440.91;5027905;28;20074;-73
2022/08/22 03:58:59;;;;;;;51.00;47.90;;;;;;;23.32;44.40;101438.47;5055811;28;20036;-72
2022/08/22 04:01:46;;;;;;;49.53;46.72;;;;;;;23.30;44.20;101437.94;5054121;28;20135;-73
2022/08/22 04:04:39;;;;;;;50.60;47.70;;;;;;;23.28;43.90;101436.63;5054667;28;20028;-77
2022/08/22 04:07:35;;;;;;;55.17;51.97;;;;;;;23.26;44.03;101434.22;5055401;28;20495;-73
2022/08/22 04:10:38;;;;;;;52.25;48.95;;;;;;;23.24;44.24;101444.72;5054048;28;20028;-71
2022/08/22 04:13:31;;;;;;;51.92;49.22;;;;;;;23.22;44.40;101446.97;5054480;28;20079;-72
2022/08/22 04:16:02;;;;;;;51.03;48.08;;;;;;;23.22;44.00;101454.44;5055522;28;20043;-72
2022/08/22 04:18:46;;;;;;;53.10;50.13;;;;;;;23.19;44.14;101453.09;5055398;28;20021;-72
2022/08/22 04:21:34;;;;;;;51.45;48.63;;;;;;;23.18;43.82;101454.22;5053816;28;20064;-72
2022/08/22 04:24:38;;;;;;;49.03;46.22;;;;;;;23.16;44.00;101450.97;5055129;28;20025;-74
2022/08/22 04:27:09;;;;;;;50.75;47.70;;;;;;;23.16;44.28;101450.13;5005296;28;20037;-73
2022/08/22 04:29:42;;;;;;;51.47;48.45;;;;;;;23.14;44.56;101447.72;5054711;28;20025;-73
2022/08/22 04:32:24;;;;;;;50.83;47.50;;;;;;;23.12;44.45;101452.72;5055268;28;20024;-74
2022/08/22 04:34:53;;;;;;;49.15;46.15;;;;;;;23.12;44.46;101452.72;5054828;28;20028;-71
2022/08/22 04:37:33;;;;;;;51.40;48.20;;;;;;;23.09;44.28;101454.16;5054768;28;20052;-73
2022/08/22 04:40:06;;;;;;;53.13;50.13;;;;;;;23.08;44.73;101451.69;5054094;28;20102;-72
2022/08/22 04:42:37;;;;;;;51.42;48.38;;;;;;;23.07;44.74;101452.84;5037753;28;20029;-72
2022/08/22 04:45:11;;;;;;;54.63;51.72;;;;;;;23.06;44.27;101451.22;5087484;28;20032;-73
2022/08/22 04:47:49;;;;;;;51.97;49.17;;;;;;;23.05;44.63;101447.63;5054364;28;20087;-72
2022/08/22 04:50:20;;;;;;;50.63;47.72;;;;;;;23.04;44.55;101447.94;5054716;28;20037;-72
2022/08/22 04:52:50;;;;;;;49.95;47.13;;;;;;;23.03;44.63;101447.13;5054487;28;20079;-72
2022/08/22 04:55:57;;;;;;;53.78;50.67;;;;;;;23.02;44.99;101456.50;5053883;28;20437;-74
2022/08/22 04:58:38;;;;;;;54.80;51.38;;;;;;;22.99;44.94;101465.41;5025554;28;20045;-72
2022/08/22 05:01:06;;;;;;;56.75;53.20;;;;;;;22.98;44.87;101455.53;5054421;28;20033;-72
2022/08/22 05:03:38;;;;;;;51.90;49.08;;;;;;;22.96;44.72;101466.00;5054214;28;20040;-71
2022/08/22 05:06:06;;;;;;;53.72;50.20;;;;;;;22.96;45.05;101459.69;5054358;28;20114;-72
2022/08/22 05:08:36;;;;;;;56.03;52.28;;;;;;;22.95;44.53;101463.53;5054218;28;20032;-71
2022/08/22 05:11:06;;;;;;;51.83;48.92;;;;;;;22.94;44.63;101467.44;5054357;28;20060;-72
2022/08/22 05:13:42;;;;;;;52.58;49.47;;;;;;;22.92;44.92;101464.97;5053492;28;20376;-73
2022/08/22 05:16:17;;;;;;;52.42;48.95;;;;;;;22.91;45.23;101463.34;5054402;28;20032;-71
2022/08/22 05:18:47;;;;;;;52.50;49.38;;;;;;;22.90;44.92;101462.50;5054511;28;20033;-71
2022/08/22 05:21:19;;;;;;;52.80;49.70;;;;;;;22.88;45.16;101456.53;5054067;28;20033;-71
2022/08/22 05:23:53;;;;;;;51.63;48.67;;;;;;;22.87;45.03;101465.88;5054413;28;20033;-71
2022/08/22 05:26:20;;;;;;;52.92;49.95;;;;;;;22.86;45.21;101457.94;5053147;28;20346;-72
2022/08/22 05:28:53;;;;;;;53.70;50.60;;;;;;;22.86;45.35;101461.53;5053760;28;20033;-75
2022/08/22 05:31:30;;;;;;;52.25;48.72;;;;;;;22.84;45.50;101466.50;5054175;28;20512;-72
2022/08/22 05:34:04;;;;;;;50.53;47.45;;;;;;;22.83;45.21;101464.91;5053966;28;20024;-73
2022/08/22 05:36:54;;;;;;;55.75;52.33;;;;;;;22.82;45.11;101468.75;5053887;28;20036;-73
2022/08/22 05:39:24;;;;;;;51.13;47.97;;;;;;;22.80;45.54;101468.25;5053600;28;20465;-72
2022/08/22 05:41:53;;;;;;;52.58;49.10;;;;;;;22.78;44.93;101473.28;5053509;28;20021;-71
2022/08/22 05:44:23;;;;;;;53.33;49.75;;;;;;;22.78;45.63;101475.19;5053547;28;20061;-71
2022/08/22 05:47:18;;;;;;;51.47;47.72;;;;;;;22.77;45.40;101477.13;5053260;28;20043;-72
2022/08/22 05:49:52;;;;;;;50.33;46.70;;;;;;;22.76;45.16;101470.00;5026431;28;20120;-72
2022/08/22 05:52:19;;;;;;;51.03;47.55;;;;;;;22.74;45.57;101477.75;5053453;28;20418;-72
2022/08/22 05:54:54;;;;;;;49.85;47.05;;;;;;;22.73;45.39;101473.38;5053290;28;20028;-72
2022/08/22 05:57:30;;;;;;;50.47;47.35;;;;;;;22.73;45.56;101478.03;5053328;28;20029;-72
2022/08/22 06:00:04;;;;;;;51.70;48.38;;;;;;;22.72;45.66;101476.44;5053309;28;20033;-73
2022/08/22 06:02:50;;;;;;;51.15;47.58;;;;;;;22.71;45.70;101474.81;5053456;28;20024;-73
2022/08/22 06:05:24;;;;;;;51.92;48.92;;;;;;;22.70;45.37;101482.22;5052453;28;20041;-72
2022/08/22 06:07:53;;;;;;;51.30;48.20;;;;;;;22.67;45.36;101480.91;5052122;28;20028;-72
2022/08/22 06:10:53;;;;;;;51.67;47.63;;;;;;;22.67;45.20;101482.84;5052143;28;20031;-75
2022/08/22 06:13:19;;;;;;;52.30;49.35;;;;;;;22.67;45.34;101485.59;5050363;28;20041;-76
2022/08/22 06:16:15;;;;;;;51.38;48.15;;;;;;;22.66;45.95;101481.22;5051747;28;20118;-73
2022/08/22 06:18:43;;;;;;;49.97;46.45;;;;;;;22.64;45.67;101483.47;5053397;28;20033;-72
2022/08/22 06:21:19;;;;;;;48.67;45.47;;;;;;;22.63;45.29;101487.34;5053119;28;20037;-72
2022/08/22 06:23:55;;;;;;;55.05;51.42;;;;;;;22.63;45.89;101484.59;5053310;28;20450;-71
2022/08/22 06:26:24;;;;;;;54.85;51.15;;;;;;;22.61;46.00;101490.41;5056250;28;20101;-73
2022/08/22 06:28:54;;;;;;;51.38;47.85;;;;;;;22.60;45.71;101494.28;5055588;28;20070;-72
2022/08/22 06:31:29;;;;;;;50.80;47.60;;;;;;;22.59;45.81;101497.34;5056854;28;20041;-74
2022/08/22 06:34:18;;;;;;;48.65;45.40;;;;;;;22.59;46.02;101491.84;5056819;28;20021;-73
2022/08/22 06:36:48;;;;;;;48.95;45.83;;;;;;;22.58;45.69;101496.53;5045913;28;20457;-72
2022/08/22 06:39:25;;;;;;;48.28;45.42;;;;;;;22.58;45.94;101501.19;5056909;28;20021;-73
2022/08/22 06:41:56;;;;;;;51.25;47.80;;;;;;;22.56;45.85;101498.75;5056634;28;20096;-75
2022/08/22 06:44:34;;;;;;;49.80;46.45;;;;;;;22.56;45.90;101509.78;5057147;28;20036;-74
2022/08/22 06:47:04;;;;;;;46.55;43.47;;;;;;;22.56;46.03;101511.72;5089804;28;20033;-73
2022/08/22 06:49:34;;;;;;;47.75;44.85;;;;;;;22.54;46.01;101506.50;5055663;28;20496;-77
2022/08/22 06:52:04;;;;;;;51.17;47.72;;;;;;;22.54;45.86;101511.19;5055258;28;20057;-72
2022/08/22 06:54:35;;;;;;;48.72;45.05;;;;;;;22.52;46.04;101514.25;5056316;28;20033;-72
2022/08/22 06:57:04;;;;;;;45.85;43.15;;;;;;;22.52;45.80;101514.25;5056488;28;20025;-72
2022/08/22 06:59:34;;;;;;;50.15;46.60;;;;;;;22.51;45.64;101512.63;5056444;28;20036;-72
2022/08/22 07:02:29;;;;;;;52.35;48.97;;;;;;;22.51;46.16;101509.88;5056822;28;20033;-73
2022/08/22 07:04:55;;;;;;;50.40;47.35;;;;;;;22.50;45.94;101510.97;5055010;28;20346;-73
2022/08/22 07:07:25;;;;;;;50.63;47.28;;;;;;;22.49;45.67;101508.56;5056406;28;20039;-75
2022/08/22 07:09:54;;;;;;;53.22;49.95;;;;;;;22.49;45.88;101506.59;5056321;28;20029;-72
2022/08/22 07:12:21;;;;;;;;;;;;;;;22.49;45.50;101514.06;5057135;28;20094;-72
2022/08/22 07:14:50;;;;;;;47.65;44.95;;;;;;;22.47;46.04;101514.34;5056049;28;19913;-73
2022/08/22 07:17:23;;;;;;;49.88;45.90;;;;;;;22.46;45.88;101513.53;5056105;28;20033;-78
2022/08/22 07:20:10;;;;;;;53.20;49.47;;;;;;;22.46;46.17;101521.78;5055852;28;20044;-73
2022/08/22 07:22:36;;;;;;;50.67;47.33;;;;;;;22.46;46.51;101515.47;5055471;28;20546;-76
2022/08/22 07:25:09;;;;;;;50.25;46.92;;;;;;;22.46;46.60;101512.72;5055693;28;20037;-72
2022/08/22 07:27:44;;;;;;;50.30;47.08;;;;;;;22.45;46.77;101509.16;5055645;28;20052;-77
2022/08/22 07:30:12;;;;;;;52.45;49.25;;;;;;;22.45;46.72;101502.81;5055873;28;20083;-72
2022/08/22 07:32:46;;;;;;;50.95;47.60;;;;;;;22.45;46.59;101503.66;5055583;28;20037;-72
2022/08/22 07:35:20;;;;;;;51.40;47.85;;;;;;;22.45;46.97;101509.16;5055091;28;20029;-72
2022/08/22 07:38:12;;;;;;;50.85;47.80;;;;;;;22.45;46.64;101500.06;5055589;28;20037;-72
2022/08/22 07:40:50;;;;;;;49.05;45.97;;;;;;;22.45;46.78;101508.31;5054178;28;20407;-76
2022/08/22 07:43:30;;;;;;;50.73;47.80;;;;;;;22.45;46.83;101503.66;5055428;28;20465;-75
2022/08/22 07:46:15;;;;;;;49.45;46.35;;;;;;;22.44;46.85;101503.94;5055037;28;20634;-74
2022/08/22 07:48:48;;;;;;;50.92;47.75;;;;;;;22.44;47.67;101493.75;5055227;28;20036;-72
2022/08/22 07:51:21;;;;;;;48.85;45.88;;;;;;;22.44;47.23;101485.50;5055042;28;20055;-74
2022/08/22 07:53:58;;;;;;;50.30;47.05;;;;;;;22.46;47.85;101493.47;5055325;28;20021;-74
2022/08/22 07:56:28;;;;;;;50.20;47.25;;;;;;;22.45;48.31;101497.31;5055360;28;20033;-73
2022/08/22 07:59:05;;;;;;;49.70;46.65;;;;;;;22.47;48.29;101490.38;5054950;28;20380;-74
2022/08/22 08:01:31;;;;;;;51.10;47.72;;;;;;;22.47;48.82;101484.88;5055278;28;20108;-78
2022/08/22 08:04:22;;;;;;;52.80;48.80;;;;;;;22.52;48.52;101485.91;5055493;28;20118;-79
2022/08/22 08:06:51;;;;;;;51.40;47.85;;;;;;;22.51;48.61;101489.78;5055324;28;20033;-78
2022/08/22 08:09:18;;;;;;;49.88;46.50;;;;;;;22.52;48.55;101489.47;5055828;28;20028;-74
2022/08/22 08:11:45;;;;;;;50.72;47.35;;;;;;;22.53;48.91;101488.38;5054692;28;20108;-73
2022/08/22 08:14:14;;;;;;;50.35;46.70;;;;;;;22.55;48.89;101485.28;5055117;28;20044;-74
2022/08/22 08:16:55;;;;;;;52.10;48.88;;;;;;;22.55;48.96;101482.53;5055143;28;20033;-80
2022/08/22 08:19:22;;;;;;;51.53;47.97;;;;;;;22.56;48.78;101484.19;5054841;28;20021;-73
2022/08/22 08:21:52;;;;;;;49.88;46.42;;;;;;;22.57;48.71;101483.06;5053517;28;20102;-73
2022/08/22 08:24:32;;;;;;;51.00;47.80;;;;;;;22.59;49.33;101487.13;5054877;28;20036;-74
2022/08/22 08:30:00;;;;;;;51.33;48.05;;;;;;;22.60;48.99;101477.78;5054076;28;20412;-76
2022/08/22 08:32:30;;;;;;;50.60;47.20;;;;;;;22.61;48.95;101482.13;5054488;28;20033;-73
2022/08/22 08:35:17;;;;;;;51.15;47.90;;;;;;;22.62;49.29;101475.50;5054480;28;20119;-73
2022/08/22 08:37:59;;;;;;;51.55;48.25;;;;;;;22.64;48.96;101472.44;5054141;28;20066;-73
2022/08/22 08:40:30;;;;;;;51.45;48.00;;;;;;;22.65;49.18;101474.91;5054233;28;20048;-73
2022/08/22 08:43:33;;;;;;;51.10;47.50;;;;;;;22.66;49.09;101473.78;5053066;28;20085;-73
2022/08/22 08:46:26;;;;;;;51.90;48.28;;;;;;;22.68;49.20;101476.25;5021301;28;20037;-73
2022/08/22 08:49:29;;;;;;;51.63;48.13;;;;;;;22.69;49.57;101481.41;5053376;28;20035;-73
2022/08/22 08:52:06;;;;;;;49.92;46.72;;;;;;;22.70;49.31;101479.47;5053986;28;20028;-72
2022/08/22 08:54:48;;;;;;;53.08;49.33;;;;;;;22.71;49.77;101472.06;5054443;28;20021;-74
2022/08/22 08:57:30;;;;;;;49.63;46.63;;;;;;;22.73;49.91;101470.63;5054100;28;20039;-74
2022/08/22 09:00:31;;;;;;;51.38;47.78;;;;;;;22.75;49.36;101470.28;5052889;28;20036;-75
2022/08/22 09:03:18;;;;;;;49.28;46.05;;;;;;;22.76;49.41;101469.19;5042926;28;20059;-73
2022/08/22 09:05:58;;;;;;;50.95;46.95;;;;;;;22.76;49.83;101470.00;5053948;28;20032;-77
2022/08/22 09:08:39;;;;;;;52.65;47.55;;;;;;;22.78;49.83;101462.25;5054089;28;20025;-73
2022/08/22 09:11:04;;;;;;;50.70;46.80;;;;;;;22.79;49.23;101468.56;5053729;28;20095;-73
2022/08/22 09:13:47;;;;;;;52.38;49.35;;;;;;;22.81;49.54;101464.38;5053680;28;20029;-75
2022/08/22 09:16:23;;;;;;;54.00;50.60;;;;;;;22.83;49.39;101469.56;5053953;28;20032;-71
2022/08/22 09:19:10;;;;;;;51.53;47.90;;;;;;;22.85;49.28;101465.38;5053856;28;20083;-73
2022/08/22 09:22:00;;;;;;;50.50;46.20;;;;;;;22.86;49.31;101466.22;5053584;28;20032;-72
2022/08/22 09:24:34;;;;;;;50.80;46.67;;;;;;;22.88;49.34;101463.94;5053769;28;20017;-72
2022/08/22 09:27:07;;;;;;;56.00;52.22;;;;;;;22.89;49.45;101463.66;5053846;28;20021;-75
2022/08/22 09:29:40;;;;;;;53.83;49.75;;;;;;;22.93;49.84;101460.28;5053020;28;20518;-74
2022/08/22 09:32:10;;;;;;;50.67;47.00;;;;;;;22.94;49.58;101459.97;5053370;28;20080;-73
2022/08/22 09:35:06;;;;;;;51.42;47.92;;;;;;;22.97;49.93;101459.38;5052868;28;20539;-73
2022/08/22 09:37:46;;;;;;;53.35;49.90;;;;;;;22.99;49.56;101464.59;5052986;28;20370;-74
2022/08/22 09:40:24;;;;;;;52.55;49.03;;;;;;;23.01;49.74;101446.63;5053444;28;20037;-73
2022/08/22 09:43:13;;;;;;;52.85;49.50;;;;;;;23.03;49.31;101455.41;5053631;28;20033;-76
2022/08/22 09:45:56;;;;;;;52.22;49.03;;;;;;;23.05;49.29;101453.13;5044900;28;20106;-72
2022/08/22 09:48:37;;;;;;;57.00;53.47;;;;;;;23.08;49.96;101462.72;5053685;28;20120;-83
2022/08/22 09:51:23;;;;;;;52.03;48.08;;;;;;;23.09;49.75;101453.34;5051716;28;20025;-75
2022/08/22 09:54:04;;;;;;;52.70;49.20;;;;;;;23.12;49.58;101441.69;5052746;28;20017;-72
2022/08/22 09:56:59;;;;;;;56.63;52.40;;;;;;;23.15;49.43;101446.56;5053388;28;20029;-72
2022/08/22 10:00:08;;;;;;;51.95;48.70;;;;;;;23.18;49.48;101443.19;5051995;28;20036;-72
2022/08/22 10:02:53;;;;;;;53.42;50.13;;;;;;;23.21;49.71;101448.09;5045142;28;20037;-73
2022/08/22 10:05:46;;;;;;;53.28;49.20;;;;;;;23.22;49.61;101446.97;5052838;28;20028;-74
2022/08/22 10:08:34;;;;;;;50.83;47.55;;;;;;;23.25;49.58;101438.06;5053114;28;20520;-76
2022/08/22 10:11:18;;;;;;;54.90;51.50;;;;;;;23.27;49.57;101440.53;5042285;28;20047;-72
2022/08/22 10:13:50;;;;;;;54.15;50.17;;;;;;;23.29;49.47;101436.34;5053464;28;20025;-74
2022/08/22 10:17:06;;;;;;;53.05;49.35;;;;;;;23.35;49.01;101439.78;5052968;28;20473;-73
2022/08/22 10:19:39;;;;;;;54.17;51.15;;;;;;;23.36;49.01;101444.19;5026621;28;20060;-75
2022/08/22 10:22:22;;;;;;;53.08;49.58;;;;;;;23.39;48.66;101435.28;5052656;28;20112;-73
2022/08/22 10:24:51;;;;;;;53.90;50.42;;;;;;;23.42;48.25;101431.88;5052492;28;20352;-72
2022/08/22 10:27:28;;;;;;;54.70;50.97;;;;;;;23.44;48.08;101429.63;5052594;28;20033;-73
2022/08/22 10:30:09;;;;;;;55.72;51.45;;;;;;;23.49;48.31;101425.94;5052629;28;20047;-74
2022/08/22 10:32:51;;;;;;;54.85;50.88;;;;;;;23.53;47.90;101415.91;5052212;28;20100;-72
2022/08/22 10:35:32;;;;;;;54.28;50.97;;;;;;;23.56;47.68;101423.53;5052482;28;20045;-73
2022/08/22 10:37:59;;;;;;;54.90;51.13;;;;;;;23.59;47.46;101419.38;5052119;28;20078;-73
2022/08/22 10:40:35;;;;;;;53.28;49.85;;;;;;;23.63;47.85;101418.41;5052533;28;20096;-71
2022/08/22 10:43:10;;;;;;;54.78;51.08;;;;;;;23.66;47.51;101417.78;5052168;28;20032;-73
2022/08/22 10:45:39;;;;;;;55.88;52.33;;;;;;;23.69;47.35;101417.16;5052916;28;20100;-72
2022/08/22 10:48:05;;;;;;;57.58;53.33;;;;;;;23.73;47.39;101420.94;5052530;28;20412;-71
2022/08/22 10:50:34;;;;;;;54.08;50.58;;;;;;;23.77;47.00;101415.59;5052996;28;20061;-72
2022/08/22 10:55:59;;;;;;;56.80;52.90;;;;;;;23.84;46.62;101410.47;5052959;28;20114;-76
2022/08/22 10:58:28;;;;;;;53.90;50.30;;;;;;;23.87;46.61;101407.06;5052319;28;20412;-74
2022/08/22 11:01:00;;;;;;;57.42;53.95;;;;;;;23.92;46.74;101408.88;5051080;28;20366;-73
2022/08/22 11:03:47;;;;;;;56.85;53.60;;;;;;;23.97;46.54;101405.97;5052460;28;20021;-74
2022/08/22 11:06:28;;;;;;;55.17;51.45;;;;;;;24.01;46.28;101397.88;5052437;28;20063;-74
2022/08/22 11:09:12;;;;;;;53.53;50.50;;;;;;;24.04;46.17;101394.47;5052363;28;20040;-71
2022/08/22 11:11:54;;;;;;;53.63;49.97;;;;;;;24.09;45.86;101399.84;5054803;28;20033;-71
2022/08/22 11:14:50;;;;;;;55.03;51.78;;;;;;;24.14;45.48;101399.69;5056260;28;20021;-70
2022/08/22 11:17:53;;;;;;;55.40;51.90;;;;;;;24.19;45.86;101399.56;5055978;28;20107;-70
2022/08/22 11:20:27;;;;;;;55.30;52.20;;;;;;;24.23;45.28;101395.03;5055945;28;20051;-71
2022/08/22 11:23:04;;;;;;;54.50;51.50;;;;;;;24.27;45.53;101401.56;5055877;28;20021;-70
2022/08/22 11:25:40;;;;;;;58.53;54.63;;;;;;;24.31;45.17;101399.75;5055861;28;20103;-70
2022/08/22 11:28:08;;;;;;;58.53;54.95;;;;;;;24.34;45.17;101399.16;5055532;28;20086;-73
2022/08/22 11:30:52;;;;;;;58.70;55.70;;;;;;;24.38;45.39;101393.78;5055685;28;20049;-71
2022/08/22 11:33:29;;;;;;;56.53;53.33;;;;;;;24.42;44.94;101386.50;5055874;28;20033;-74
2022/08/22 11:36:11;;;;;;;55.07;51.90;;;;;;;24.48;44.92;101392.72;5055793;28;20048;-75
2022/08/22 11:38:58;;;;;;;56.72;53.33;;;;;;;24.52;44.71;101399.19;5055799;28;20087;-70
2022/08/22 11:41:23;;;;;;;54.33;50.90;;;;;;;24.56;44.55;101392.72;5056223;28;20033;-76
2022/08/22 11:44:03;;;;;;;58.22;54.42;;;;;;;24.60;44.48;101396.47;5055926;28;20361;-73
2022/08/22 11:46:28;;;;;;;55.03;51.60;;;;;;;24.67;44.27;101403.47;5056027;28;20028;-71
2022/08/22 11:49:12;;;;;;;56.03;52.95;;;;;;;24.70;44.62;101400.88;5055421;28;20021;-72
2022/08/22 11:51:54;;;;;;;55.83;52.63;;;;;;;24.75;44.35;101397.97;5055479;28;20033;-70
2022/08/22 11:54:28;;;;;;;58.30;55.00;;;;;;;24.80;43.61;101400.56;5055460;28;20087;-70
2022/08/22 11:57:20;;;;;;;59.45;55.97;;;;;;;24.88;43.06;101403.66;5055662;28;20103;-70
2022/08/22 12:00:15;;;;;;;58.15;54.25;;;;;;;24.92;43.56;101407.41;5047371;28;20372;-71
2022/08/22 12:03:05;;;;;;;58.88;55.72;;;;;;;24.96;43.42;101402.84;5055460;28;20025;-77
2022/08/22 12:06:05;;;;;;;60.78;57.38;;;;;;;25.00;43.38;101399.13;5055859;28;20021;-71
2022/08/22 12:08:33;;;;;;;61.63;58.08;;;;;;;25.04;43.23;101400.09;5055287;28;20061;-74
2022/08/22 12:11:05;;;;;;;61.20;57.47;;;;;;;25.09;43.47;101401.88;5053341;28;20029;-70
2022/08/22 12:13:40;;;;;;;57.33;54.13;;;;;;;25.14;43.20;101406.44;5055421;28;20044;-72